OIAG  Aghajari Airport

Add Bookmark

Iran

Status
Operational
Latitude Longitude
30° 44' 39" N 49° 40' 37" E
30.744400 49.677200
Local (DST + 5) UTC (GMT + 4)
Jul 30, 2014 07:39 Jul 30, 2014 15:09
Sunrise-Sunset Local UTC
Begin Civil Twilight 06:00 01:30
Sunrise 06:26 01:56
Sunset 08:08 15:38
End Civil Twilight 08:35 16:05

Current Weather

METAR Observed VFR
OIAG 301400Z 18006KT CAVOK 44/07 Q0995 Wed, Jul 30, 2014 @ 14:00 UTC
(1 Hour, 9 Minutes ago)
Visual Flight Rules

Decoded METAR

Wind Visibility Clouds Conditions
180° at 6 knots (11 kph) 10 km or more
  • Clear skies
  • No significant weather
Temperatures Readings Precipitation
Current Temp 44°C (111°F)
Dewpoint 7°C (45°F)
Humidity 11%
Altimeter 29.38"Hg
Sea Level Pressure 995mb
Field Elevation 95.14'
None Recorded

Additional weather within a 92.6km radius of OIAG

Map ICAO Location
OIAM 54.4km W (248°)

24 Hour Weather History

Loading
-

24 Hour Weather Graphs

Loading
-

CheckWX.com is intended as a tool to help pilots better visualize weather data. It is not intended as a substitute for an official weather briefing obtained from a Flight Service Station. CheckWX.com does not meet the FAA requirements for an official pre-flight weather briefing. Therefore, it's important that pilots still call and obtain an official FSS pre-flight weather briefing.